createdAt,value
2022-09-01T00:00:03.187Z,48.80
2022-09-01T00:02:34.076Z,48.80
2022-09-01T00:05:01.886Z,48.90
2022-09-01T00:07:34.718Z,48.80
2022-09-01T00:10:04.804Z,48.80
2022-09-01T00:12:31.833Z,48.90
2022-09-01T00:14:59.260Z,48.70
2022-09-01T00:17:26.924Z,48.70
2022-09-01T00:19:54.052Z,48.50
2022-09-01T00:22:21.075Z,48.60
2022-09-01T00:24:48.250Z,48.80
2022-09-01T00:27:17.535Z,48.20
2022-09-01T00:29:45.065Z,48.40
2022-09-01T00:32:12.653Z,48.30
2022-09-01T00:34:40.344Z,48.20
2022-09-01T00:37:08.059Z,48.30
2022-09-01T00:39:35.152Z,47.60
2022-09-01T00:42:02.867Z,47.50
2022-09-01T00:44:31.943Z,47.40
2022-09-01T00:47:01.842Z,47.60
2022-09-01T00:49:43.154Z,47.90
2022-09-01T00:52:21.854Z,48.60
2022-09-01T00:54:53.682Z,48.80
2022-09-01T00:57:21.023Z,48.90
2022-09-01T00:59:56.078Z,49.20
2022-09-01T01:02:23.565Z,49.30
2022-09-01T01:04:52.697Z,49.50
2022-09-01T01:07:22.691Z,49.50
2022-09-01T01:09:53.548Z,49.50
2022-09-01T01:12:23.861Z,49.80
2022-09-01T01:14:51.380Z,50.10
2022-09-01T01:17:20.921Z,50.20
2022-09-01T01:20:11.924Z,50.20
2022-09-01T01:23:02.558Z,50.70
2022-09-01T01:25:35.886Z,51.00
2022-09-01T01:28:13.943Z,51.00
2022-09-01T01:30:51.199Z,51.00
2022-09-01T01:33:27.933Z,51.10
2022-09-01T01:35:57.732Z,51.50
2022-09-01T01:38:25.613Z,51.80
2022-09-01T01:40:55.920Z,52.10
2022-09-01T01:43:24.340Z,52.10
2022-09-01T01:45:54.004Z,52.30
2022-09-01T01:48:23.980Z,52.50
2022-09-01T01:50:53.023Z,52.60
2022-09-01T01:53:25.079Z,52.80
2022-09-01T01:55:51.893Z,53.00
2022-09-01T01:58:21.131Z,53.20
2022-09-01T02:00:50.604Z,53.50
2022-09-01T02:03:22.990Z,53.40
2022-09-01T02:05:52.495Z,53.70
2022-09-01T02:08:21.887Z,53.70
2022-09-01T02:10:51.203Z,53.80
2022-09-01T02:13:20.951Z,53.90
2022-09-01T02:15:53.790Z,54.00
2022-09-01T02:18:36.170Z,54.10
2022-09-01T02:21:10.593Z,54.60
2022-09-01T02:23:42.257Z,54.70
2022-09-01T02:26:16.490Z,55.30
2022-09-01T02:28:55.716Z,55.50
2022-09-01T02:31:28.166Z,55.50
2022-09-01T02:33:55.266Z,55.80
2022-09-01T02:36:22.752Z,56.00
2022-09-01T02:38:53.178Z,56.40
2022-09-01T02:41:29.273Z,56.60
2022-09-01T02:43:57.257Z,56.90
2022-09-01T02:46:24.862Z,57.30
2022-09-01T02:48:52.567Z,57.50
2022-09-01T02:51:22.573Z,57.70
2022-09-01T02:53:52.468Z,58.30
2022-09-01T02:56:25.638Z,58.80
2022-09-01T02:58:53.758Z,59.10
2022-09-01T03:01:29.709Z,59.50
2022-09-01T03:04:10.657Z,60.00
2022-09-01T03:06:38.600Z,60.80
2022-09-01T03:09:09.107Z,61.20
2022-09-01T03:11:40.516Z,61.90
2022-09-01T03:14:08.081Z,62.60
2022-09-01T03:16:35.937Z,63.00
2022-09-01T03:19:08.934Z,63.50
2022-09-01T03:21:40.907Z,64.10
2022-09-01T03:24:15.298Z,64.20
2022-09-01T03:26:43.992Z,65.10
2022-09-01T03:29:11.561Z,65.60
2022-09-01T03:31:38.638Z,66.40
2022-09-01T03:34:06.155Z,66.90
2022-09-01T03:36:33.422Z,67.30
2022-09-01T03:39:03.755Z,67.80
2022-09-01T03:41:31.247Z,68.60
2022-09-01T03:43:59.469Z,69.10
2022-09-01T03:46:33.140Z,69.10
2022-09-01T03:49:06.124Z,70.00
2022-09-01T03:51:33.032Z,70.50
2022-09-01T03:54:00.180Z,70.70
2022-09-01T03:56:28.713Z,71.30
2022-09-01T03:58:58.383Z,71.20
2022-09-01T04:01:37.897Z,71.60
2022-09-01T04:04:07.863Z,71.90
2022-09-01T04:06:40.031Z,72.20
2022-09-01T04:09:07.449Z,72.60
2022-09-01T04:11:35.137Z,73.20
2022-09-01T04:14:04.941Z,74.00
2022-09-01T04:16:53.706Z,74.00
2022-09-01T04:19:26.947Z,73.90
2022-09-01T04:22:00.132Z,74.00
2022-09-01T04:24:32.372Z,74.60
2022-09-01T04:27:02.398Z,74.90
2022-09-01T04:29:31.742Z,75.20
2022-09-01T04:32:05.622Z,75.70
2022-09-01T04:34:38.199Z,75.80
2022-09-01T04:37:13.352Z,75.80
2022-09-01T04:39:51.271Z,76.00
2022-09-01T04:42:24.277Z,76.30
2022-09-01T04:44:53.628Z,76.50
2022-09-01T04:47:31.604Z,76.60
2022-09-01T04:50:14.126Z,76.70
2022-09-01T04:52:42.303Z,76.40
2022-09-01T04:55:17.386Z,76.30
2022-09-01T04:57:47.623Z,76.60
2022-09-01T05:00:25.620Z,76.80
2022-09-01T05:02:55.602Z,76.70
2022-09-01T05:05:25.032Z,76.70
2022-09-01T05:07:54.502Z,76.90
2022-09-01T05:10:22.951Z,76.90
2022-09-01T05:12:50.865Z,77.10
2022-09-01T05:15:21.153Z,77.10
2022-09-01T05:17:52.762Z,77.30
2022-09-01T05:20:21.586Z,77.30
2022-09-01T05:22:48.428Z,77.10
2022-09-01T05:25:18.505Z,77.00
2022-09-01T05:27:49.548Z,77.00
2022-09-01T05:30:18.620Z,76.50
2022-09-01T05:32:50.958Z,76.30
2022-09-01T05:35:18.700Z,76.00
2022-09-01T05:37:46.047Z,75.80
2022-09-01T05:40:16.430Z,75.80
2022-09-01T05:42:44.196Z,75.60
2022-09-01T05:45:14.323Z,75.20
2022-09-01T05:47:41.896Z,75.00
2022-09-01T05:50:14.614Z,74.40
2022-09-01T05:52:44.633Z,74.40
2022-09-01T05:55:11.659Z,74.50
2022-09-01T05:57:39.825Z,74.30
2022-09-01T06:00:13.330Z,74.30
2022-09-01T06:02:43.337Z,75.00
2022-09-01T06:05:10.992Z,74.10
2022-09-01T06:07:40.948Z,73.90
2022-09-01T06:10:08.644Z,73.60
2022-09-01T06:12:35.520Z,73.30
2022-09-01T06:15:02.332Z,73.10
2022-09-01T06:17:30.002Z,73.00
2022-09-01T06:19:57.471Z,72.70
2022-09-01T06:22:26.748Z,72.50
2022-09-01T06:25:01.874Z,72.10
2022-09-01T06:27:32.165Z,71.60
2022-09-01T06:29:59.636Z,70.50
2022-09-01T06:32:27.048Z,70.10
2022-09-01T06:34:54.281Z,70.20
2022-09-01T06:37:22.527Z,70.10
2022-09-01T06:39:50.436Z,69.30
2022-09-01T06:42:23.031Z,68.70
2022-09-01T06:44:52.627Z,68.60
2022-09-01T06:47:19.699Z,68.10
2022-09-01T06:49:46.791Z,67.90
2022-09-01T06:52:13.840Z,67.90
2022-09-01T06:54:43.742Z,67.60
2022-09-01T06:59:57.982Z,67.10
2022-09-01T07:02:26.891Z,66.20
2022-09-01T07:04:54.856Z,65.80
2022-09-01T07:10:23.425Z,65.60
2022-09-01T07:13:07.834Z,65.60
2022-09-01T07:18:31.221Z,64.30
2022-09-01T07:24:06.053Z,63.40
2022-09-01T07:26:36.628Z,63.30
2022-09-01T07:29:12.171Z,62.70
2022-09-01T07:34:39.017Z,61.80
2022-09-01T07:39:55.411Z,61.00
2022-09-01T07:42:30.264Z,63.80
2022-09-01T07:42:55.575Z,62.30
2022-09-01T07:45:28.255Z,61.10
2022-09-01T07:48:00.101Z,61.00
2022-09-01T07:53:22.559Z,59.30
2022-09-01T07:55:51.573Z,59.30
2022-09-01T07:58:24.668Z,59.10
2022-09-01T08:00:54.474Z,58.10
2022-09-01T08:03:24.967Z,57.80
2022-09-01T08:05:57.787Z,57.70
2022-09-01T08:08:29.236Z,57.90
2022-09-01T08:11:04.225Z,57.50
2022-09-01T08:13:34.643Z,57.20
2022-09-01T08:16:08.434Z,56.80
2022-09-01T08:18:51.586Z,56.50
2022-09-01T08:21:22.078Z,56.60
2022-09-01T08:23:53.912Z,56.60
2022-09-01T08:26:26.393Z,56.30
2022-09-01T08:28:56.259Z,56.00
2022-09-01T08:31:24.723Z,55.50
2022-09-01T08:33:52.229Z,53.90
2022-09-01T08:36:23.701Z,53.50
2022-09-01T08:38:55.458Z,53.10
2022-09-01T08:41:54.410Z,52.30
2022-09-01T08:44:52.750Z,50.50
2022-09-01T08:47:39.335Z,49.70
2022-09-01T08:50:09.705Z,49.60
2022-09-01T08:52:41.880Z,48.60
2022-09-01T08:55:25.913Z,48.60
2022-09-01T08:57:59.808Z,48.60
2022-09-01T09:00:36.003Z,48.70
2022-09-01T09:03:12.407Z,48.80
2022-09-01T09:06:08.768Z,49.00
2022-09-01T09:08:48.532Z,47.30
2022-09-01T09:11:30.121Z,46.00
2022-09-01T09:14:00.125Z,45.20
2022-09-01T09:16:36.028Z,45.40
2022-09-01T09:19:14.347Z,46.10
2022-09-01T09:21:44.025Z,45.50
2022-09-01T09:24:47.500Z,45.10
2022-09-01T09:27:26.699Z,44.90
2022-09-01T09:30:04.214Z,45.20
2022-09-01T09:33:30.518Z,43.70
2022-09-01T09:35:48.580Z,42.60
2022-09-01T09:38:40.092Z,42.40
2022-09-01T09:41:20.808Z,42.70
2022-09-01T09:43:58.977Z,41.10
2022-09-01T09:46:31.850Z,40.60
2022-09-01T09:49:12.858Z,39.30
2022-09-01T09:51:42.741Z,38.90
2022-09-01T09:54:21.027Z,38.50
2022-09-01T09:56:49.546Z,37.10
2022-09-01T09:59:56.700Z,36.50
2022-09-01T10:02:32.858Z,36.20
2022-09-01T10:05:02.771Z,34.70
2022-09-01T10:07:35.400Z,34.90
2022-09-01T10:10:24.738Z,34.40
2022-09-01T10:12:59.767Z,33.90
2022-09-01T10:15:30.704Z,33.40
2022-09-01T10:20:57.257Z,30.80
2022-09-01T10:23:31.345Z,32.00
2022-09-01T10:26:38.530Z,32.00
2022-09-01T10:29:15.885Z,30.10
2022-09-01T10:31:43.599Z,29.20
2022-09-01T10:34:19.454Z,29.10
2022-09-01T10:36:54.934Z,28.80
2022-09-01T10:39:28.648Z,27.90
2022-09-01T10:42:08.224Z,28.30
2022-09-01T10:44:56.229Z,28.60
2022-09-01T10:47:33.878Z,28.10
2022-09-01T10:50:10.245Z,27.90
2022-09-01T10:52:44.065Z,28.20
2022-09-01T10:55:24.733Z,27.10
2022-09-01T10:59:32.679Z,27.30
2022-09-01T11:01:40.276Z,27.00
2022-09-01T11:03:56.488Z,26.90
2022-09-01T11:06:42.369Z,26.60
2022-09-01T11:09:26.201Z,26.00
2022-09-01T11:12:17.435Z,25.50
2022-09-01T11:15:02.855Z,24.20
2022-09-01T11:18:01.463Z,24.50
2022-09-01T11:20:38.592Z,23.40
2022-09-01T11:23:34.591Z,22.90
2022-09-01T11:26:25.207Z,22.90
2022-09-01T11:28:52.100Z,23.20
2022-09-01T11:31:43.942Z,23.90
2022-09-01T11:34:20.055Z,22.90
2022-09-01T11:36:51.284Z,23.80
2022-09-01T11:39:19.229Z,22.90
2022-09-01T11:41:55.843Z,22.60
2022-09-01T11:44:46.759Z,22.50
2022-09-01T11:47:18.128Z,22.50
2022-09-01T11:50:22.525Z,20.90
2022-09-01T11:53:05.877Z,19.50
2022-09-01T11:55:34.365Z,19.80
2022-09-01T11:58:04.212Z,20.30
2022-09-01T12:00:38.324Z,19.80
2022-09-01T12:03:26.109Z,19.60
2022-09-01T12:06:01.219Z,19.30
2022-09-01T12:08:34.748Z,19.50
2022-09-01T12:11:30.438Z,20.00
2022-09-01T12:14:08.918Z,19.90
2022-09-01T12:16:42.224Z,18.80
2022-09-01T12:19:22.286Z,18.30
2022-09-01T12:21:59.882Z,19.20
2022-09-01T12:24:34.832Z,20.70
2022-09-01T12:27:04.994Z,22.20
2022-09-01T12:29:33.140Z,23.90
2022-09-01T12:32:02.491Z,25.10
2022-09-01T12:34:29.366Z,25.40
2022-09-01T12:37:29.627Z,25.60
2022-09-01T12:40:02.191Z,25.40
2022-09-01T12:42:41.329Z,25.40
2022-09-01T12:45:13.262Z,25.40
2022-09-01T12:47:50.223Z,25.40
2022-09-01T12:50:17.555Z,25.10
2022-09-01T12:52:58.278Z,25.30
2022-09-01T12:55:48.705Z,25.00
2022-09-01T12:58:25.632Z,23.40
2022-09-01T13:01:15.285Z,19.10
2022-09-01T13:03:43.666Z,15.50
2022-09-01T13:06:12.706Z,15.40
2022-09-01T13:08:43.264Z,15.50
2022-09-01T13:11:14.431Z,9.60
2022-09-01T13:13:42.522Z,1.00
2022-09-01T13:16:13.867Z,1.00
2022-09-01T13:21:31.162Z,1.00
2022-09-01T13:24:00.387Z,1.70
2022-09-01T13:26:31.292Z,3.10
2022-09-01T13:28:59.702Z,5.30
2022-09-01T13:31:29.662Z,7.90
2022-09-01T13:34:20.441Z,10.20
2022-09-01T13:36:51.727Z,12.20
2022-09-01T13:39:24.292Z,14.30
2022-09-01T13:41:51.151Z,16.90
2022-09-01T13:44:18.642Z,18.50
2022-09-01T13:50:06.470Z,19.80
2022-09-01T13:52:24.719Z,19.80
2022-09-01T13:54:51.947Z,18.90
2022-09-01T13:57:18.708Z,18.00
2022-09-01T13:59:45.477Z,18.00
2022-09-01T14:02:12.446Z,18.40
2022-09-01T14:04:39.552Z,18.30
2022-09-01T14:07:06.705Z,19.00
2022-09-01T14:09:33.619Z,19.00
2022-09-01T14:12:00.493Z,18.90
2022-09-01T14:15:10.765Z,19.20
2022-09-01T14:17:18.962Z,18.70
2022-09-01T14:19:50.451Z,18.20
2022-09-01T14:22:17.549Z,18.00
2022-09-01T14:24:44.518Z,18.00
2022-09-01T14:27:11.554Z,17.40
2022-09-01T14:32:07.952Z,16.50
2022-09-01T14:34:38.041Z,12.20
2022-09-01T14:37:07.336Z,6.60
2022-09-01T14:39:34.303Z,3.00
2022-09-01T14:42:01.090Z,1.00
2022-09-01T14:44:27.851Z,1.00
2022-09-01T14:46:57.456Z,1.00
2022-09-01T14:49:33.159Z,1.00
2022-09-01T14:52:10.782Z,4.30
2022-09-01T14:54:43.195Z,7.50
2022-09-01T14:57:37.964Z,10.00
2022-09-01T15:00:01.306Z,8.70
2022-09-01T15:02:29.225Z,7.60
2022-09-01T15:04:59.146Z,8.20
2022-09-01T15:07:25.930Z,9.20
2022-09-01T15:09:52.940Z,7.90
2022-09-01T15:12:23.619Z,2.90
2022-09-01T15:14:52.814Z,1.50
2022-09-01T15:17:19.635Z,4.00
2022-09-01T15:19:46.437Z,6.60
2022-09-01T15:22:14.462Z,9.70
2022-09-01T15:24:41.357Z,11.80
2022-09-01T15:27:13.599Z,13.00
2022-09-01T15:29:48.049Z,13.00
2022-09-01T15:32:20.566Z,14.10
2022-09-01T15:34:55.986Z,15.60
2022-09-01T15:37:25.364Z,16.90
2022-09-01T15:39:52.137Z,17.00
2022-09-01T15:42:19.089Z,17.50
2022-09-01T15:44:48.780Z,18.90
2022-09-01T15:47:15.835Z,19.70
2022-09-01T15:49:44.786Z,20.80
2022-09-01T15:52:11.642Z,21.40
2022-09-01T15:54:39.280Z,20.40
2022-09-01T15:57:06.875Z,20.30
2022-09-01T15:59:37.609Z,20.40
2022-09-01T16:02:06.310Z,20.20
2022-09-01T16:04:36.451Z,20.30
2022-09-01T16:07:03.399Z,20.60
2022-09-01T16:09:30.806Z,20.30
2022-09-01T16:11:57.656Z,20.20
2022-09-01T16:14:24.502Z,20.10
2022-09-01T16:17:17.921Z,20.20
2022-09-01T16:19:50.963Z,19.80
2022-09-01T16:22:28.495Z,19.60
2022-09-01T16:25:00.238Z,19.90
2022-09-01T16:27:38.955Z,20.40
2022-09-01T16:30:09.075Z,20.40
2022-09-01T16:32:38.212Z,21.00
2022-09-01T16:35:05.942Z,20.90
2022-09-01T16:37:51.215Z,21.10
2022-09-01T16:41:00.377Z,21.10
2022-09-01T16:43:37.694Z,21.40
2022-09-01T16:46:07.471Z,21.80
2022-09-01T16:48:47.406Z,22.40
2022-09-01T16:51:39.329Z,22.80
2022-09-01T16:54:29.241Z,23.10
2022-09-01T16:57:12.885Z,21.00
2022-09-01T16:59:55.473Z,21.50
2022-09-01T17:02:38.672Z,22.00
2022-09-01T17:05:17.880Z,23.00
2022-09-01T17:08:10.807Z,24.20
2022-09-01T17:10:44.554Z,24.80
2022-09-01T17:13:30.091Z,25.50
2022-09-01T17:16:24.840Z,26.30
2022-09-01T17:19:04.871Z,26.80
2022-09-01T17:21:38.644Z,27.40
2022-09-01T17:24:14.695Z,27.90
2022-09-01T17:26:41.861Z,28.70
2022-09-01T17:29:24.432Z,29.10
2022-09-01T17:32:12.575Z,29.70
2022-09-01T17:35:07.774Z,30.10
2022-09-01T17:38:04.663Z,31.20
2022-09-01T17:40:50.618Z,32.40
2022-09-01T17:44:07.553Z,32.80
2022-09-01T17:46:43.733Z,33.70
2022-09-01T17:49:32.864Z,34.60
2022-09-01T17:52:06.044Z,35.60
2022-09-01T17:54:54.856Z,36.30
2022-09-01T17:57:47.068Z,37.20
2022-09-01T18:00:24.726Z,37.80
2022-09-01T18:03:10.253Z,38.30
2022-09-01T18:05:43.714Z,38.80
2022-09-01T18:08:16.352Z,39.30
2022-09-01T18:10:55.797Z,38.50
2022-09-01T18:13:53.836Z,38.20
2022-09-01T18:16:29.462Z,38.60
2022-09-01T18:19:05.564Z,38.00
2022-09-01T18:21:39.819Z,38.50
2022-09-01T18:24:16.379Z,37.90
2022-09-01T18:26:51.439Z,38.20
2022-09-01T18:29:18.955Z,38.10
2022-09-01T18:32:17.826Z,38.30
2022-09-01T18:34:54.266Z,38.50
2022-09-01T18:38:05.227Z,38.80
2022-09-01T18:40:36.929Z,39.30
2022-09-01T18:43:23.284Z,39.70
2022-09-01T18:45:56.699Z,39.90
2022-09-01T18:48:29.716Z,41.50
2022-09-01T18:51:15.324Z,41.00
2022-09-01T18:54:08.113Z,41.00
2022-09-01T18:56:37.835Z,41.10
2022-09-01T18:59:05.081Z,41.60
2022-09-01T19:01:48.492Z,42.60
2022-09-01T19:04:33.551Z,42.60
2022-09-01T19:07:15.588Z,42.60
2022-09-01T19:10:07.555Z,43.00
2022-09-01T19:12:41.156Z,44.00
2022-09-01T19:15:27.549Z,43.60
2022-09-01T19:18:12.645Z,43.50
2022-09-01T19:21:04.201Z,44.40
2022-09-01T19:23:47.468Z,44.40
2022-09-01T19:26:22.923Z,44.80
2022-09-01T19:29:04.534Z,44.70
2022-09-01T19:31:42.362Z,45.00
2022-09-01T19:34:17.348Z,45.10
2022-09-01T19:37:05.048Z,45.10
2022-09-01T19:39:43.806Z,45.40
2022-09-01T19:42:20.667Z,45.90
2022-09-01T19:45:27.538Z,45.90
2022-09-01T19:48:16.502Z,45.90
2022-09-01T19:51:01.367Z,46.30
2022-09-01T19:53:51.369Z,47.50
2022-09-01T19:56:18.170Z,47.20
2022-09-01T19:59:13.970Z,47.20
2022-09-01T20:01:50.083Z,47.30
2022-09-01T20:04:37.951Z,47.50
2022-09-01T20:07:10.101Z,47.50
2022-09-01T20:10:10.006Z,47.60
2022-09-01T20:13:14.841Z,47.50
2022-09-01T20:16:02.191Z,47.70
2022-09-01T20:18:54.908Z,47.90
2022-09-01T20:21:26.660Z,47.70
2022-09-01T20:24:08.254Z,47.60
2022-09-01T20:26:43.640Z,47.90
2022-09-01T20:29:45.737Z,47.90
2022-09-01T20:32:16.169Z,47.70
2022-09-01T20:34:55.169Z,48.00
2022-09-01T20:37:30.019Z,48.20
2022-09-01T20:40:12.802Z,48.20
2022-09-01T20:42:51.527Z,48.10
2022-09-01T20:45:27.194Z,48.70
2022-09-01T20:48:24.142Z,48.60
2022-09-01T20:50:56.779Z,48.80
2022-09-01T20:53:35.788Z,48.80
2022-09-01T20:56:02.690Z,48.80
2022-09-01T20:58:41.450Z,48.90
2022-09-01T21:01:48.928Z,49.30
2022-09-01T21:04:25.830Z,49.30
2022-09-01T21:07:12.122Z,49.40
2022-09-01T21:09:59.712Z,49.80
2022-09-01T21:13:01.832Z,50.10
2022-09-01T21:15:44.050Z,50.10
2022-09-01T21:18:55.691Z,50.10
2022-09-01T21:21:46.916Z,50.40
2022-09-01T21:24:16.890Z,50.30
2022-09-01T21:26:43.920Z,50.20
2022-09-01T21:29:46.915Z,50.40
2022-09-01T21:32:16.424Z,50.30
2022-09-01T21:34:44.978Z,50.50
2022-09-01T21:37:12.814Z,50.60
2022-09-01T21:39:40.060Z,50.80
2022-09-01T21:42:09.116Z,51.00
2022-09-01T21:44:36.918Z,51.10
2022-09-01T21:47:04.483Z,51.20
2022-09-01T21:49:33.291Z,51.30
2022-09-01T21:52:02.833Z,51.40
2022-09-01T21:54:29.750Z,51.50
2022-09-01T21:56:59.002Z,51.70
2022-09-01T21:59:26.471Z,51.60
2022-09-01T22:01:56.217Z,51.80
2022-09-01T22:04:25.741Z,51.80
2022-09-01T22:06:55.210Z,51.80
2022-09-01T22:09:22.020Z,51.80
2022-09-01T22:11:50.772Z,52.10
2022-09-01T22:14:21.780Z,51.90
2022-09-01T22:16:49.867Z,52.20
2022-09-01T22:19:17.205Z,52.40
2022-09-01T22:21:47.315Z,52.40
2022-09-01T22:24:14.069Z,52.50
2022-09-01T22:26:47.569Z,52.50
2022-09-01T22:29:18.277Z,52.60
2022-09-01T22:31:45.549Z,52.70
2022-09-01T22:34:14.565Z,53.70
2022-09-01T22:36:45.042Z,53.00
2022-09-01T22:39:13.039Z,53.80
2022-09-01T22:41:43.128Z,53.40
2022-09-01T22:44:11.077Z,53.50
2022-09-01T22:46:39.618Z,53.80
2022-09-01T22:49:07.530Z,53.90
2022-09-01T22:51:37.672Z,53.90
2022-09-01T22:54:05.367Z,54.80
2022-09-01T22:56:35.844Z,54.10
2022-09-01T22:59:09.694Z,54.60
2022-09-01T23:01:39.239Z,54.60
2022-09-01T23:04:07.637Z,54.60
2022-09-01T23:06:38.596Z,54.60
2022-09-01T23:09:11.142Z,54.60
2022-09-01T23:11:37.967Z,54.60
2022-09-01T23:14:05.421Z,54.60
2022-09-01T23:16:34.947Z,54.60
2022-09-01T23:19:04.863Z,54.70
2022-09-01T23:21:35.241Z,54.60
2022-09-01T23:24:05.224Z,54.60
2022-09-01T23:26:32.529Z,54.60
2022-09-01T23:28:59.626Z,54.50
2022-09-01T23:31:31.752Z,54.50
2022-09-01T23:34:01.324Z,54.60
2022-09-01T23:36:31.581Z,54.60
2022-09-01T23:39:01.440Z,54.60
2022-09-01T23:41:31.689Z,54.50
2022-09-01T23:44:01.566Z,54.60
2022-09-01T23:46:32.232Z,54.60
2022-09-01T23:49:00.592Z,54.60
2022-09-01T23:51:29.667Z,54.60
2022-09-01T23:53:56.622Z,54.60
2022-09-01T23:56:25.896Z,54.60
2022-09-01T23:58:55.329Z,54.50
